sensor_id;sensor_type;location;lat;lon;timestamp;pressure;altitude;pressure_sealevel;temperature;humidity
19748;BME280;10032;51.386;12.516;2022-12-29T00:02:16;99406.88;;;9.68;100.00
19748;BME280;10032;51.386;12.516;2022-12-29T00:04:42;99416.91;;;9.68;100.00
19748;BME280;10032;51.386;12.516;2022-12-29T00:07:08;99418.78;;;9.67;100.00
19748;BME280;10032;51.386;12.516;2022-12-29T00:09:34;99417.44;;;9.70;100.00
19748;BME280;10032;51.386;12.516;2022-12-29T00:12:00;99415.56;;;9.70;100.00
19748;BME280;10032;51.386;12.516;2022-12-29T00:14:27;99419.38;;;9.69;100.00
19748;BME280;10032;51.386;12.516;2022-12-29T00:17:11;99421.00;;;9.70;100.00
19748;BME280;10032;51.386;12.516;2022-12-29T00:19:36;99418.81;;;9.72;100.00
19748;BME280;10032;51.386;12.516;2022-12-29T00:22:20;99425.06;;;9.73;100.00
19748;BME280;10032;51.386;12.516;2022-12-29T00:25:05;99418.31;;;9.75;100.00
19748;BME280;10032;51.386;12.516;2022-12-29T00:27:31;99418.31;;;9.75;100.00
19748;BME280;10032;51.386;12.516;2022-12-29T00:30:18;99408.84;;;9.78;100.00
19748;BME280;10032;51.386;12.516;2022-12-29T00:33:10;99406.66;;;9.75;100.00
19748;BME280;10032;51.386;12.516;2022-12-29T00:35:59;99399.38;;;9.75;100.00
19748;BME280;10032;51.386;12.516;2022-12-29T00:38:26;99398.84;;;9.78;100.00
19748;BME280;10032;51.386;12.516;2022-12-29T00:41:10;99398.84;;;9.78;100.00
19748;BME280;10032;51.386;12.516;2022-12-29T00:43:54;99394.50;;;9.77;100.00
19748;BME280;10032;51.386;12.516;2022-12-29T00:46:39;99386.97;;;9.79;100.00
19748;BME280;10032;51.386;12.516;2022-12-29T00:49:06;99389.38;;;9.81;100.00
19748;BME280;10032;51.386;12.516;2022-12-29T00:51:50;99380.47;;;9.80;100.00
19748;BME280;10032;51.386;12.516;2022-12-29T00:54:16;99382.09;;;9.81;100.00
19748;BME280;10032;51.386;12.516;2022-12-29T00:56:42;99388.88;;;9.84;100.00
19748;BME280;10032;51.386;12.516;2022-12-29T00:59:09;99375.09;;;9.85;100.00
19748;BME280;10032;51.386;12.516;2022-12-29T01:01:36;99378.31;;;9.87;100.00
19748;BME280;10032;51.386;12.516;2022-12-29T01:04:02;99377.81;;;9.90;100.00
19748;BME280;10032;51.386;12.516;2022-12-29T01:06:28;99382.69;;;9.93;100.00
19748;BME280;10032;51.386;12.516;2022-12-29T01:08:53;99384.31;;;9.94;100.00
19748;BME280;10032;51.386;12.516;2022-12-29T01:11:40;99380.25;;;9.97;100.00
19748;BME280;10032;51.386;12.516;2022-12-29T01:14:06;99378.38;;;9.97;100.00
19748;BME280;10032;51.386;12.516;2022-12-29T01:16:32;99395.72;;;10.01;100.00
19748;BME280;10032;51.386;12.516;2022-12-29T01:18:57;99380.06;;;10.08;100.00
19748;BME280;10032;51.386;12.516;2022-12-29T01:21:23;99379.84;;;10.15;100.00
19748;BME280;10032;51.386;12.516;2022-12-29T01:23:49;99384.19;;;10.21;100.00
19748;BME280;10032;51.386;12.516;2022-12-29T01:26:15;99378.25;;;10.24;100.00
19748;BME280;10032;51.386;12.516;2022-12-29T01:28:41;99371.47;;;10.26;100.00
19748;BME280;10032;51.386;12.516;2022-12-29T01:31:10;99370.13;;;10.29;100.00
19748;BME280;10032;51.386;12.516;2022-12-29T01:33:36;99358.25;;;10.35;100.00
19748;BME280;10032;51.386;12.516;2022-12-29T01:36:13;99353.63;;;10.35;100.00
19748;BME280;10032;51.386;12.516;2022-12-29T01:38:39;99357.97;;;10.41;100.00
19748;BME280;10032;51.386;12.516;2022-12-29T01:41:06;99342.53;;;10.42;100.00
19748;BME280;10032;51.386;12.516;2022-12-29T01:44:01;99330.34;;;10.44;100.00
19748;BME280;10032;51.386;12.516;2022-12-29T01:46:39;99353.66;;;10.45;100.00
19748;BME280;10032;51.386;12.516;2022-12-29T01:49:14;99347.72;;;10.48;100.00
19748;BME280;10032;51.386;12.516;2022-12-29T01:51:52;99337.66;;;10.49;100.00
19748;BME280;10032;51.386;12.516;2022-12-29T01:54:22;99335.22;;;10.47;100.00
19748;BME280;10032;51.386;12.516;2022-12-29T01:56:50;99342.28;;;10.48;100.00
19748;BME280;10032;51.386;12.516;2022-12-29T01:59:20;99343.63;;;10.46;100.00
19748;BME280;10032;51.386;12.516;2022-12-29T02:01:46;99341.72;;;10.46;100.00
19748;BME280;10032;51.386;12.516;2022-12-29T02:04:12;99341.72;;;10.46;100.00
19748;BME280;10032;51.386;12.516;2022-12-29T02:06:43;99333.59;;;10.46;100.00
19748;BME280;10032;51.386;12.516;2022-12-29T02:09:11;99330.63;;;10.48;100.00
19748;BME280;10032;51.386;12.516;2022-12-29T02:11:38;99330.38;;;10.49;100.00
19748;BME280;10032;51.386;12.516;2022-12-29T02:14:11;99329.81;;;10.52;100.00
19748;BME280;10032;51.386;12.516;2022-12-29T02:27:29;99336.31;;;10.51;100.00
19748;BME280;10032;51.386;12.516;2022-12-29T02:43:32;99325.75;;;10.60;100.00
19748;BME280;10032;51.386;12.516;2022-12-29T02:46:04;99321.44;;;10.64;100.00
19748;BME280;10032;51.386;12.516;2022-12-29T02:48:46;99313.31;;;10.64;100.00
19748;BME280;10032;51.386;12.516;2022-12-29T02:51:19;99308.97;;;10.63;100.00
19748;BME280;10032;51.386;12.516;2022-12-29T02:53:46;99300.03;;;10.62;100.00
19748;BME280;10032;51.386;12.516;2022-12-29T02:56:30;99291.13;;;10.62;100.00
19748;BME280;10032;51.386;12.516;2022-12-29T02:58:56;99281.63;;;10.64;100.00
19748;BME280;10032;51.386;12.516;2022-12-29T03:02:05;99280.53;;;10.65;100.00
19748;BME280;10032;51.386;12.516;2022-12-29T03:10:04;99250.47;;;10.72;100.00
19748;BME280;10032;51.386;12.516;2022-12-29T03:15:46;99255.06;;;10.71;100.00
19748;BME280;10032;51.386;12.516;2022-12-29T03:24:11;99267.25;;;10.69;100.00
19748;BME280;10032;51.386;12.516;2022-12-29T03:26:37;99259.66;;;10.71;100.00
19748;BME280;10032;51.386;12.516;2022-12-29T03:29:06;99275.13;;;10.70;100.00
19748;BME280;10032;51.386;12.516;2022-12-29T03:31:33;99280.81;;;10.69;100.00
19748;BME280;10032;51.386;12.516;2022-12-29T03:34:00;99278.09;;;10.74;100.00
19748;BME280;10032;51.386;12.516;2022-12-29T03:36:33;99285.41;;;10.73;100.00
19748;BME280;10032;51.386;12.516;2022-12-29T03:39:09;99268.34;;;10.73;100.00
19748;BME280;10032;51.386;12.516;2022-12-29T03:41:38;99262.94;;;10.73;100.00
19748;BME280;10032;51.386;12.516;2022-12-29T03:44:06;99286.22;;;10.74;100.00
19748;BME280;10032;51.386;12.516;2022-12-29T03:46:32;99287.84;;;10.75;100.00
19748;BME280;10032;51.386;12.516;2022-12-29T03:48:57;99280.53;;;10.80;100.00
19748;BME280;10032;51.386;12.516;2022-12-29T03:51:23;99278.38;;;10.82;100.00
19748;BME280;10032;51.386;12.516;2022-12-29T03:53:48;99274.56;;;10.83;100.00
19748;BME280;10032;51.386;12.516;2022-12-29T03:56:14;99282.16;;;10.81;100.00
19748;BME280;10032;51.386;12.516;2022-12-29T03:58:39;99276.75;;;10.81;100.00
19748;BME280;10032;51.386;12.516;2022-12-29T04:01:05;99272.94;;;10.82;100.00
19748;BME280;10032;51.386;12.516;2022-12-29T04:03:30;99271.31;;;10.81;100.00
19748;BME280;10032;51.386;12.516;2022-12-29T04:05:56;99272.94;;;10.82;100.00
19748;BME280;10032;51.386;12.516;2022-12-29T04:08:21;99293.25;;;10.85;100.00
19748;BME280;10032;51.386;12.516;2022-12-29T04:10:48;99299.50;;;10.85;100.00
19748;BME280;10032;51.386;12.516;2022-12-29T04:13:14;99295.72;;;10.86;100.00
19748;BME280;10032;51.386;12.516;2022-12-29T04:15:39;99304.63;;;10.87;100.00
19748;BME280;10032;51.386;12.516;2022-12-29T04:18:04;99297.59;;;10.91;100.00
19748;BME280;10032;51.386;12.516;2022-12-29T04:20:30;99315.75;;;10.90;100.00
19748;BME280;10032;51.386;12.516;2022-12-29T04:23:14;99307.63;;;10.90;100.00
19748;BME280;10032;51.386;12.516;2022-12-29T04:25:39;99324.41;;;10.92;100.00
19748;BME280;10032;51.386;12.516;2022-12-29T04:28:05;99320.09;;;10.91;100.00
19748;BME280;10032;51.386;12.516;2022-12-29T04:30:33;99327.97;;;10.93;100.00
19748;BME280;10032;51.386;12.516;2022-12-29T04:32:58;99326.59;;;10.95;100.00
19748;BME280;10032;51.386;12.516;2022-12-29T04:35:23;99327.13;;;10.97;100.00
19748;BME280;10032;51.386;12.516;2022-12-29T04:37:49;99324.41;;;10.97;100.00
19748;BME280;10032;51.386;12.516;2022-12-29T04:40:14;99321.72;;;10.97;100.00
19748;BME280;10032;51.386;12.516;2022-12-29T04:42:40;99328.75;;;10.98;100.00
19748;BME280;10032;51.386;12.516;2022-12-29T04:45:05;99330.94;;;11.01;100.00
19748;BME280;10032;51.386;12.516;2022-12-29T04:47:31;99327.13;;;11.02;100.00
19748;BME280;10032;51.386;12.516;2022-12-29T04:49:56;99322.25;;;11.04;100.00
19748;BME280;10032;51.386;12.516;2022-12-29T04:52:22;99321.16;;;11.05;100.00
19748;BME280;10032;51.386;12.516;2022-12-29T04:54:47;99313.84;;;11.06;100.00
19748;BME280;10032;51.386;12.516;2022-12-29T04:57:13;99309.50;;;11.05;100.00
19748;BME280;10032;51.386;12.516;2022-12-29T04:59:38;99305.19;;;11.04;100.00
19748;BME280;10032;51.386;12.516;2022-12-29T05:02:03;99310.59;;;11.04;100.00
19748;BME280;10032;51.386;12.516;2022-12-29T05:04:29;99303.00;;;11.01;100.00
19748;BME280;10032;51.386;12.516;2022-12-29T05:06:54;99305.44;;;11.02;100.00
19748;BME280;10032;51.386;12.516;2022-12-29T05:09:19;99297.56;;;11.01;100.00
19748;BME280;10032;51.386;12.516;2022-12-29T05:11:45;99288.63;;;11.00;100.00
19748;BME280;10032;51.386;12.516;2022-12-29T05:14:10;99288.91;;;10.99;100.00
19748;BME280;10032;51.386;12.516;2022-12-29T05:16:36;99291.91;;;10.97;100.00
19748;BME280;10032;51.386;12.516;2022-12-29T05:19:01;99296.22;;;10.98;100.00
19748;BME280;10032;51.386;12.516;2022-12-29T05:21:26;99301.66;;;10.98;100.00
19748;BME280;10032;51.386;12.516;2022-12-29T05:23:52;99291.38;;;10.95;100.00
19748;BME280;10032;51.386;12.516;2022-12-29T05:26:17;99287.00;;;10.94;100.00
19748;BME280;10032;51.386;12.516;2022-12-29T05:28:43;99289.72;;;10.94;100.00
19748;BME280;10032;51.386;12.516;2022-12-29T05:31:08;99284.88;;;10.91;100.00
19748;BME280;10032;51.386;12.516;2022-12-29T05:33:33;99280.53;;;10.90;100.00
19748;BME280;10032;51.386;12.516;2022-12-29T05:36:06;99283.50;;;10.89;100.00
19748;BME280;10032;51.386;12.516;2022-12-29T05:38:32;99282.41;;;10.85;100.00
19748;BME280;10032;51.386;12.516;2022-12-29T05:40:58;99285.13;;;10.80;100.00
19748;BME280;10032;51.386;12.516;2022-12-29T05:43:23;99283.78;;;10.82;100.00
19748;BME280;10032;51.386;12.516;2022-12-29T05:45:49;99284.34;;;10.79;100.00
19748;BME280;10032;51.386;12.516;2022-12-29T05:48:15;99281.91;;;10.78;100.00
19748;BME280;10032;51.386;12.516;2022-12-29T05:50:40;99290.81;;;10.78;100.00
19748;BME280;10032;51.386;12.516;2022-12-29T05:53:06;99291.13;;;10.77;100.00
19748;BME280;10032;51.386;12.516;2022-12-29T05:55:31;99283.25;;;10.75;100.00
19748;BME280;10032;51.386;12.516;2022-12-29T05:57:56;99288.66;;;10.75;100.00
19748;BME280;10032;51.386;12.516;2022-12-29T06:00:22;99279.44;;;10.76;100.00
19748;BME280;10032;51.386;12.516;2022-12-29T06:02:47;99277.00;;;10.75;100.00
19748;BME280;10032;51.386;12.516;2022-12-29T06:05:13;99277.84;;;10.70;100.00
19748;BME280;10032;51.386;12.516;2022-12-29T06:07:38;99266.44;;;10.68;100.00
19748;BME280;10032;51.386;12.516;2022-12-29T06:10:05;99267.78;;;10.66;100.00
19748;BME280;10032;51.386;12.516;2022-12-29T06:12:31;99276.47;;;10.63;100.00
19748;BME280;10032;51.386;12.516;2022-12-29T06:14:56;99281.63;;;10.64;100.00
19748;BME280;10032;51.386;12.516;2022-12-29T06:17:22;99283.25;;;10.65;100.00
19748;BME280;10032;51.386;12.516;2022-12-29T06:19:47;99283.53;;;10.69;100.00
19748;BME280;10032;51.386;12.516;2022-12-29T06:22:12;99281.06;;;10.67;100.00
19748;BME280;10032;51.386;12.516;2022-12-29T06:24:38;99285.97;;;10.70;100.00
19748;BME280;10032;51.386;12.516;2022-12-29T06:27:04;99279.44;;;10.71;100.00
19748;BME280;10032;51.386;12.516;2022-12-29T06:29:29;99281.34;;;10.71;100.00
19748;BME280;10032;51.386;12.516;2022-12-29T06:31:55;99280.81;;;10.74;100.00
19748;BME280;10032;51.386;12.516;2022-12-29T06:34:23;99287.84;;;10.75;100.00
19748;BME280;10032;51.386;12.516;2022-12-29T06:36:49;99287.84;;;10.75;100.00
19748;BME280;10032;51.386;12.516;2022-12-29T06:39:14;99288.66;;;10.75;100.00
19748;BME280;10032;51.386;12.516;2022-12-29T06:41:40;99284.88;;;10.76;100.00
19748;BME280;10032;51.386;12.516;2022-12-29T06:44:05;99281.06;;;10.77;100.00
19748;BME280;10032;51.386;12.516;2022-12-29T06:46:31;99284.59;;;10.78;100.00
19748;BME280;10032;51.386;12.516;2022-12-29T06:48:56;99279.44;;;10.76;100.00
19748;BME280;10032;51.386;12.516;2022-12-29T06:51:21;99266.44;;;10.78;100.00
19748;BME280;10032;51.386;12.516;2022-12-29T06:53:47;99263.19;;;10.81;100.00
19748;BME280;10032;51.386;12.516;2022-12-29T06:56:12;99258.56;;;10.82;100.00
19748;BME280;10032;51.386;12.516;2022-12-29T06:58:38;99249.09;;;10.84;100.00
19748;BME280;10032;51.386;12.516;2022-12-29T07:01:03;99247.19;;;10.85;100.00
19748;BME280;10032;51.386;12.516;2022-12-29T07:03:29;99251.78;;;10.84;100.00
19748;BME280;10032;51.386;12.516;2022-12-29T07:05:54;99256.16;;;10.85;100.00
19748;BME280;10032;51.386;12.516;2022-12-29T07:08:20;99244.50;;;10.85;100.00
19748;BME280;10032;51.386;12.516;2022-12-29T07:10:46;99249.09;;;10.84;100.00
19748;BME280;10032;51.386;12.516;2022-12-29T07:13:12;99251.81;;;10.79;100.00
19748;BME280;10032;51.386;12.516;2022-12-29T07:15:37;99251.28;;;10.77;100.00
19748;BME280;10032;51.386;12.516;2022-12-29T07:18:03;99268.34;;;10.73;100.00
19748;BME280;10032;51.386;12.516;2022-12-29T07:20:29;99267.53;;;10.67;100.00
19748;BME280;10032;51.386;12.516;2022-12-29T07:22:54;99269.72;;;10.65;100.00
19748;BME280;10032;51.386;12.516;2022-12-29T07:25:20;99281.63;;;10.64;100.00
19748;BME280;10032;51.386;12.516;2022-12-29T07:27:45;99281.63;;;10.64;100.00
19748;BME280;10032;51.386;12.516;2022-12-29T07:30:11;99278.38;;;10.67;100.00
19748;BME280;10032;51.386;12.516;2022-12-29T07:32:37;99286.50;;;10.67;100.00
19748;BME280;10032;51.386;12.516;2022-12-29T07:35:02;99275.91;;;10.71;100.00
19748;BME280;10032;51.386;12.516;2022-12-29T07:37:28;99277.56;;;10.72;100.00
19748;BME280;10032;51.386;12.516;2022-12-29T07:39:53;99277.00;;;10.75;100.00
19748;BME280;10032;51.386;12.516;2022-12-29T07:42:19;99280.28;;;10.77;100.00
19748;BME280;10032;51.386;12.516;2022-12-29T07:44:44;99284.34;;;10.79;100.00
19748;BME280;10032;51.386;12.516;2022-12-29T07:47:09;99294.09;;;10.80;100.00
19748;BME280;10032;51.386;12.516;2022-12-29T07:49:35;99286.22;;;10.84;100.00
19748;BME280;10032;51.386;12.516;2022-12-29T07:52:00;99272.94;;;10.82;100.00
19748;BME280;10032;51.386;12.516;2022-12-29T07:54:25;99287.00;;;10.84;100.00
19748;BME280;10032;51.386;12.516;2022-12-29T07:56:51;99281.06;;;10.87;100.00
19748;BME280;10032;51.386;12.516;2022-12-29T07:59:16;99286.75;;;10.91;100.00
19748;BME280;10032;51.386;12.516;2022-12-29T08:01:42;99280.78;;;10.94;100.00
19748;BME280;10032;51.386;12.516;2022-12-29T08:04:08;99287.31;;;10.93;100.00
19748;BME280;10032;51.386;12.516;2022-12-29T08:06:34;99290.00;;;10.93;100.00
19748;BME280;10032;51.386;12.516;2022-12-29T08:08:59;99291.63;;;10.94;100.00
19748;BME280;10032;51.386;12.516;2022-12-29T08:11:26;99290.00;;;10.98;100.00
19748;BME280;10032;51.386;12.516;2022-12-29T08:13:52;99292.44;;;10.99;100.00
19748;BME280;10032;51.386;12.516;2022-12-29T08:16:17;99293.78;;;11.02;100.00
19748;BME280;10032;51.386;12.516;2022-12-29T08:18:43;99294.03;;;11.05;100.00
19748;BME280;10032;51.386;12.516;2022-12-29T08:21:09;99294.88;;;11.06;100.00
19748;BME280;10032;51.386;12.516;2022-12-29T08:23:35;99276.41;;;11.08;100.00
19748;BME280;10032;51.386;12.516;2022-12-29T08:26:05;99279.41;;;11.11;100.00
19748;BME280;10032;51.386;12.516;2022-12-29T08:28:32;99274.00;;;11.11;100.00
19748;BME280;10032;51.386;12.516;2022-12-29T08:31:02;99277.22;;;11.13;100.00
19748;BME280;10032;51.386;12.516;2022-12-29T08:33:28;99274.00;;;11.16;100.00
19748;BME280;10032;51.386;12.516;2022-12-29T08:36:05;99278.03;;;11.19;100.00
19748;BME280;10032;51.386;12.516;2022-12-29T08:38:32;99274.25;;;11.20;100.00
19748;BME280;10032;51.386;12.516;2022-12-29T08:40:58;99262.28;;;11.26;100.00
19748;BME280;10032;51.386;12.516;2022-12-29T08:43:24;99272.59;;;11.24;100.00
19748;BME280;10032;51.386;12.516;2022-12-29T08:45:50;99269.59;;;11.25;100.00
19748;BME280;10032;51.386;12.516;2022-12-29T08:48:16;99270.44;;;11.26;100.00
19748;BME280;10032;51.386;12.516;2022-12-29T08:50:45;99264.44;;;11.29;100.00
19748;BME280;10032;51.386;12.516;2022-12-29T08:53:10;99268.50;;;11.31;100.00
19748;BME280;10032;51.386;12.516;2022-12-29T08:55:36;99257.94;;;11.35;100.00
19748;BME280;10032;51.386;12.516;2022-12-29T08:58:01;99258.97;;;11.39;100.00
19748;BME280;10032;51.386;12.516;2022-12-29T09:00:27;99241.91;;;11.43;100.00
19748;BME280;10032;51.386;12.516;2022-12-29T09:02:52;99245.41;;;11.44;100.00
19748;BME280;10032;51.386;12.516;2022-12-29T09:05:18;99246.47;;;11.48;100.00
19748;BME280;10032;51.386;12.516;2022-12-29T09:07:43;99248.34;;;11.52;100.00
19748;BME280;10032;51.386;12.516;2022-12-29T09:10:08;99252.66;;;11.58;100.00
19748;BME280;10032;51.386;12.516;2022-12-29T09:12:34;99242.66;;;11.64;100.00
19748;BME280;10032;51.386;12.516;2022-12-29T09:15:00;99250.75;;;11.69;100.00
19748;BME280;10032;51.386;12.516;2022-12-29T09:17:25;99250.47;;;11.75;100.00
19748;BME280;10032;51.386;12.516;2022-12-29T09:20:07;99257.47;;;11.86;100.00
19748;BME280;10032;51.386;12.516;2022-12-29T09:22:34;99250.91;;;11.92;100.00
19748;BME280;10032;51.386;12.516;2022-12-29T09:24:59;99248.97;;;11.98;100.00
19748;BME280;10032;51.386;12.516;2022-12-29T09:27:25;99259.50;;;12.09;100.00
19748;BME280;10032;51.386;12.516;2022-12-29T09:29:50;99247.22;;;12.17;100.00
19748;BME280;10032;51.386;12.516;2022-12-29T09:32:15;99248.53;;;12.24;100.00
19748;BME280;10032;51.386;12.516;2022-12-29T09:34:41;99247.41;;;12.30;100.00
19748;BME280;10032;51.386;12.516;2022-12-29T09:37:06;99255.50;;;12.35;100.00
19748;BME280;10032;51.386;12.516;2022-12-29T09:39:32;99247.88;;;12.37;100.00
19748;BME280;10032;51.386;12.516;2022-12-29T09:47:14;99242.91;;;12.49;100.00
19748;BME280;10032;51.386;12.516;2022-12-29T09:52:42;99252.69;;;12.50;100.00
19748;BME280;10032;51.386;12.516;2022-12-29T09:55:14;99248.34;;;12.49;100.00
19748;BME280;10032;51.386;12.516;2022-12-29T10:00:21;99241.31;;;12.48;100.00
19748;BME280;10032;51.386;12.516;2022-12-29T10:02:58;99237.81;;;12.43;100.00
19748;BME280;10032;51.386;12.516;2022-12-29T10:05:43;99245.13;;;12.42;100.00
19748;BME280;10032;51.386;12.516;2022-12-29T10:13:42;99242.38;;;12.47;100.00
19748;BME280;10032;51.386;12.516;2022-12-29T10:23:52;99231.03;;;12.40;100.00
19748;BME280;10032;51.386;12.516;2022-12-29T10:26:20;99234.25;;;12.42;100.00
19748;BME280;10032;51.386;12.516;2022-12-29T10:31:29;99207.09;;;12.42;100.00
19748;BME280;10032;51.386;12.516;2022-12-29T10:33:58;99211.75;;;12.42;100.00
19748;BME280;10032;51.386;12.516;2022-12-29T10:36:41;99212.44;;;12.52;100.00
19748;BME280;10032;51.386;12.516;2022-12-29T10:39:21;99218.81;;;12.71;100.00
19748;BME280;10032;51.386;12.516;2022-12-29T10:44:34;99205.69;;;13.07;100.00
19748;BME280;10032;51.386;12.516;2022-12-29T10:47:04;99207.25;;;13.13;100.00
19748;BME280;10032;51.386;12.516;2022-12-29T10:49:32;99204.66;;;13.26;100.00
19748;BME280;10032;51.386;12.516;2022-12-29T10:52:03;99204.25;;;13.38;100.00
19748;BME280;10032;51.386;12.516;2022-12-29T10:57:13;99209.16;;;13.59;100.00
19748;BME280;10032;51.386;12.516;2022-12-29T10:59:42;99198.63;;;13.71;100.00
19748;BME280;10032;51.386;12.516;2022-12-29T11:05:06;99195.50;;;14.01;100.00
19748;BME280;10032;51.386;12.516;2022-12-29T11:07:35;99200.47;;;14.13;100.00
19748;BME280;10032;51.386;12.516;2022-12-29T11:10:29;99204.19;;;14.22;100.00
19748;BME280;10032;51.386;12.516;2022-12-29T11:13:05;99198.38;;;14.28;100.00
19748;BME280;10032;51.386;12.516;2022-12-29T11:15:44;99197.25;;;14.29;100.00
19748;BME280;10032;51.386;12.516;2022-12-29T11:18:40;99199.63;;;14.36;100.00
19748;BME280;10032;51.386;12.516;2022-12-29T11:21:25;99206.69;;;14.37;100.00
19748;BME280;10032;51.386;12.516;2022-12-29T11:23:57;99198.59;;;14.32;100.00
19748;BME280;10032;51.386;12.516;2022-12-29T11:26:24;99208.38;;;14.33;100.00
19748;BME280;10032;51.386;12.516;2022-12-29T11:31:49;99201.22;;;14.37;100.00
19748;BME280;10032;51.386;12.516;2022-12-29T11:34:24;99188.91;;;14.39;100.00
19748;BME280;10032;51.386;12.516;2022-12-29T11:36:54;99196.47;;;14.42;100.00
19748;BME280;10032;51.386;12.516;2022-12-29T11:39:33;99198.53;;;14.50;100.00
19748;BME280;10032;51.386;12.516;2022-12-29T11:42:00;99194.22;;;14.49;100.00
19748;BME280;10032;51.386;12.516;2022-12-29T11:44:36;99193.19;;;14.45;100.00
19748;BME280;10032;51.386;12.516;2022-12-29T11:47:03;99217.72;;;14.45;100.00
19748;BME280;10032;51.386;12.516;2022-12-29T11:49:30;99216.09;;;14.44;100.00
19748;BME280;10032;51.386;12.516;2022-12-29T11:51:56;99213.38;;;14.44;100.00
19748;BME280;10032;51.386;12.516;2022-12-29T11:54:27;99221.00;;;14.42;100.00
19748;BME280;10032;51.386;12.516;2022-12-29T11:56:55;99210.72;;;14.39;100.00
19748;BME280;10032;51.386;12.516;2022-12-29T12:01:57;99208.56;;;14.36;100.00
19748;BME280;10032;51.386;12.516;2022-12-29T12:04:30;99210.72;;;14.39;100.00
19748;BME280;10032;51.386;12.516;2022-12-29T12:07:03;99210.09;;;14.42;100.00
19748;BME280;10032;51.386;12.516;2022-12-29T12:10:00;99213.38;;;14.44;100.00
19748;BME280;10032;51.386;12.516;2022-12-29T12:12:35;99227.22;;;14.48;100.00
19748;BME280;10032;51.386;12.516;2022-12-29T12:15:05;99217.25;;;14.57;100.00
19748;BME280;10032;51.386;12.516;2022-12-29T12:17:42;99219.66;;;14.58;100.00
19748;BME280;10032;51.386;12.516;2022-12-29T12:20:36;99213.63;;;14.61;100.00
19748;BME280;10032;51.386;12.516;2022-12-29T12:24:16;99219.00;;;14.66;100.00
19748;BME280;10032;51.386;12.516;2022-12-29T12:26:35;99218.09;;;14.71;100.00
19748;BME280;10032;51.386;12.516;2022-12-29T12:29:25;99225.97;;;14.72;100.00
19748;BME280;10032;51.386;12.516;2022-12-29T12:32:01;99222.13;;;14.73;100.00
19748;BME280;10032;51.386;12.516;2022-12-29T12:34:36;99206.59;;;14.74;100.00
19748;BME280;10032;51.386;12.516;2022-12-29T12:45:56;99217.88;;;14.67;100.00
19748;BME280;10032;51.386;12.516;2022-12-29T12:59:03;99223.28;;;14.54;100.00
19748;BME280;10032;51.386;12.516;2022-12-29T13:07:06;99220.56;;;14.54;100.00
19748;BME280;10032;51.386;12.516;2022-12-29T13:18:31;99228.59;;;14.45;100.00
19748;BME280;10032;51.386;12.516;2022-12-29T13:21:06;99232.94;;;14.46;100.00
19748;BME280;10032;51.386;12.516;2022-12-29T13:24:00;99231.03;;;14.47;100.00
19748;BME280;10032;51.386;12.516;2022-12-29T13:30:11;99234.50;;;14.34;100.00
19748;BME280;10032;51.386;12.516;2022-12-29T13:32:50;99232.69;;;14.29;100.00
19748;BME280;10032;51.386;12.516;2022-12-29T13:38:34;99238.13;;;14.29;100.00
19748;BME280;10032;51.386;12.516;2022-12-29T13:41:14;99237.03;;;14.30;100.00
19748;BME280;10032;51.386;12.516;2022-12-29T13:43:43;99246.81;;;14.31;100.00
19748;BME280;10032;51.386;12.516;2022-12-29T13:46:18;99246.59;;;14.28;100.00
19748;BME280;10032;51.386;12.516;2022-12-29T13:48:51;99245.78;;;14.27;100.00
19748;BME280;10032;51.386;12.516;2022-12-29T13:51:20;99250.22;;;14.23;100.00
19748;BME280;10032;51.386;12.516;2022-12-29T13:56:40;99251.19;;;14.09;100.00
19748;BME280;10032;51.386;12.516;2022-12-29T14:02:42;99264.16;;;13.98;100.00
19748;BME280;10032;51.386;12.516;2022-12-29T14:07:43;99265.91;;;13.89;100.00
19748;BME280;10032;51.386;12.516;2022-12-29T14:12:49;99267.06;;;13.83;100.00
19748;BME280;10032;51.386;12.516;2022-12-29T14:15:22;99272.00;;;13.81;100.00
19748;BME280;10032;51.386;12.516;2022-12-29T14:18:19;99275.84;;;13.80;100.00
19748;BME280;10032;51.386;12.516;2022-12-29T14:21:19;99275.38;;;13.73;100.00
19748;BME280;10032;51.386;12.516;2022-12-29T14:23:51;99280.09;;;13.68;100.00
19748;BME280;10032;51.386;12.516;2022-12-29T14:28:57;99282.03;;;13.62;100.00
19748;BME280;10032;51.386;12.516;2022-12-29T14:31:40;99283.72;;;13.58;100.00
19748;BME280;10032;51.386;12.516;2022-12-29T14:36:55;99285.75;;;13.48;100.00
19748;BME280;10032;51.386;12.516;2022-12-29T14:45:02;99293.03;;;13.29;100.00
19748;BME280;10032;51.386;12.516;2022-12-29T14:47:41;99302.28;;;13.28;100.00
19748;BME280;10032;51.386;12.516;2022-12-29T14:55:40;99324.75;;;13.15;100.00
19748;BME280;10032;51.386;12.516;2022-12-29T14:58:31;99320.69;;;13.12;100.00
19748;BME280;10032;51.386;12.516;2022-12-29T15:00:58;99320.41;;;13.09;100.00
19748;BME280;10032;51.386;12.516;2022-12-29T15:05:59;99310.38;;;13.09;100.00
19748;BME280;10032;51.386;12.516;2022-12-29T15:08:33;99321.84;;;13.06;100.00
19748;BME280;10032;51.386;12.516;2022-12-29T15:11:09;99337.88;;;13.03;100.00
19748;BME280;10032;51.386;12.516;2022-12-29T15:13:39;99333.28;;;13.03;100.00
19748;BME280;10032;51.386;12.516;2022-12-29T15:16:05;99334.38;;;13.02;100.00
19748;BME280;10032;51.386;12.516;2022-12-29T15:18:45;99345.75;;;13.04;100.00
19748;BME280;10032;51.386;12.516;2022-12-29T15:21:12;99353.94;;;13.04;100.00
19748;BME280;10032;51.386;12.516;2022-12-29T15:23:42;99357.47;;;13.05;100.00
19748;BME280;10032;51.386;12.516;2022-12-29T15:26:09;99354.19;;;13.03;100.00